sensor_id;sensor_type;location;lat;lon;timestamp;P1;durP1;ratioP1;P2;durP2;ratioP2
13999;SDS011;7075;53.574;10.054;2022-11-15T00:00:52;77.35;;;72.10;;
13999;SDS011;7075;53.574;10.054;2022-11-15T00:03:18;77.00;;;71.90;;
13999;SDS011;7075;53.574;10.054;2022-11-15T00:05:46;79.03;;;73.68;;
13999;SDS011;7075;53.574;10.054;2022-11-15T00:08:12;82.78;;;77.35;;
13999;SDS011;7075;53.574;10.054;2022-11-15T00:10:37;76.43;;;71.43;;
13999;SDS011;7075;53.574;10.054;2022-11-15T00:13:10;81.60;;;76.27;;
13999;SDS011;7075;53.574;10.054;2022-11-15T00:15:42;74.50;;;69.30;;
13999;SDS011;7075;53.574;10.054;2022-11-15T00:18:14;80.83;;;75.53;;
13999;SDS011;7075;53.574;10.054;2022-11-15T00:20:41;76.78;;;71.68;;
13999;SDS011;7075;53.574;10.054;2022-11-15T00:23:06;78.00;;;72.70;;
13999;SDS011;7075;53.574;10.054;2022-11-15T00:25:32;74.53;;;69.40;;
13999;SDS011;7075;53.574;10.054;2022-11-15T00:27:58;69.50;;;64.70;;
13999;SDS011;7075;53.574;10.054;2022-11-15T00:30:25;85.13;;;79.43;;
13999;SDS011;7075;53.574;10.054;2022-11-15T00:32:51;74.57;;;69.55;;
13999;SDS011;7075;53.574;10.054;2022-11-15T00:35:17;70.65;;;65.95;;
13999;SDS011;7075;53.574;10.054;2022-11-15T00:37:43;73.95;;;69.00;;
13999;SDS011;7075;53.574;10.054;2022-11-15T00:40:09;72.90;;;67.95;;
13999;SDS011;7075;53.574;10.054;2022-11-15T00:42:35;72.72;;;67.85;;
13999;SDS011;7075;53.574;10.054;2022-11-15T00:45:01;72.83;;;68.00;;
13999;SDS011;7075;53.574;10.054;2022-11-15T00:47:30;71.32;;;66.55;;
13999;SDS011;7075;53.574;10.054;2022-11-15T00:49:55;72.53;;;67.57;;
13999;SDS011;7075;53.574;10.054;2022-11-15T00:52:21;67.80;;;62.90;;
13999;SDS011;7075;53.574;10.054;2022-11-15T00:54:46;72.30;;;67.60;;
13999;SDS011;7075;53.574;10.054;2022-11-15T00:57:11;80.03;;;74.93;;
13999;SDS011;7075;53.574;10.054;2022-11-15T00:59:37;77.90;;;72.87;;
13999;SDS011;7075;53.574;10.054;2022-11-15T01:02:02;75.63;;;70.53;;
13999;SDS011;7075;53.574;10.054;2022-11-15T01:04:28;76.60;;;71.63;;
13999;SDS011;7075;53.574;10.054;2022-11-15T01:06:54;72.77;;;67.97;;
13999;SDS011;7075;53.574;10.054;2022-11-15T01:09:19;78.35;;;73.30;;
13999;SDS011;7075;53.574;10.054;2022-11-15T01:11:45;73.22;;;68.05;;
13999;SDS011;7075;53.574;10.054;2022-11-15T01:14:10;77.37;;;72.20;;
13999;SDS011;7075;53.574;10.054;2022-11-15T01:16:36;79.83;;;74.27;;
13999;SDS011;7075;53.574;10.054;2022-11-15T01:19:01;73.35;;;68.43;;
13999;SDS011;7075;53.574;10.054;2022-11-15T01:21:27;73.80;;;68.82;;
13999;SDS011;7075;53.574;10.054;2022-11-15T01:23:53;72.93;;;67.93;;
13999;SDS011;7075;53.574;10.054;2022-11-15T01:26:20;67.70;;;63.00;;
13999;SDS011;7075;53.574;10.054;2022-11-15T01:28:46;69.55;;;64.82;;
13999;SDS011;7075;53.574;10.054;2022-11-15T01:31:12;65.47;;;60.90;;
13999;SDS011;7075;53.574;10.054;2022-11-15T01:33:40;65.22;;;60.72;;
13999;SDS011;7075;53.574;10.054;2022-11-15T01:36:06;61.13;;;56.93;;
13999;SDS011;7075;53.574;10.054;2022-11-15T01:38:35;64.50;;;60.03;;
13999;SDS011;7075;53.574;10.054;2022-11-15T01:41:01;63.90;;;59.50;;
13999;SDS011;7075;53.574;10.054;2022-11-15T01:43:28;58.58;;;54.45;;
13999;SDS011;7075;53.574;10.054;2022-11-15T01:46:02;64.47;;;59.97;;
13999;SDS011;7075;53.574;10.054;2022-11-15T01:48:44;62.97;;;58.63;;
13999;SDS011;7075;53.574;10.054;2022-11-15T01:51:11;63.55;;;59.25;;
13999;SDS011;7075;53.574;10.054;2022-11-15T01:53:43;56.40;;;52.50;;
13999;SDS011;7075;53.574;10.054;2022-11-15T01:56:19;62.58;;;58.15;;
13999;SDS011;7075;53.574;10.054;2022-11-15T01:58:50;60.60;;;56.07;;
13999;SDS011;7075;53.574;10.054;2022-11-15T02:01:18;62.90;;;58.20;;
13999;SDS011;7075;53.574;10.054;2022-11-15T02:06:32;60.38;;;56.17;;
13999;SDS011;7075;53.574;10.054;2022-11-15T02:08:59;59.47;;;55.17;;
13999;SDS011;7075;53.574;10.054;2022-11-15T02:11:25;60.28;;;55.85;;
13999;SDS011;7075;53.574;10.054;2022-11-15T02:13:51;64.50;;;60.05;;
13999;SDS011;7075;53.574;10.054;2022-11-15T02:19:04;62.85;;;58.45;;
13999;SDS011;7075;53.574;10.054;2022-11-15T02:21:50;64.20;;;59.65;;
13999;SDS011;7075;53.574;10.054;2022-11-15T02:24:35;65.35;;;60.67;;
13999;SDS011;7075;53.574;10.054;2022-11-15T02:32:28;65.33;;;60.70;;
13999;SDS011;7075;53.574;10.054;2022-11-15T02:35:09;64.03;;;59.78;;
13999;SDS011;7075;53.574;10.054;2022-11-15T02:37:59;65.82;;;61.25;;
13999;SDS011;7075;53.574;10.054;2022-11-15T02:40:59;64.97;;;60.40;;
13999;SDS011;7075;53.574;10.054;2022-11-15T02:43:44;66.78;;;62.28;;
13999;SDS011;7075;53.574;10.054;2022-11-15T02:46:35;68.55;;;63.85;;
13999;SDS011;7075;53.574;10.054;2022-11-15T02:49:25;70.55;;;65.65;;
13999;SDS011;7075;53.574;10.054;2022-11-15T02:51:54;69.82;;;65.32;;
13999;SDS011;7075;53.574;10.054;2022-11-15T02:54:25;67.00;;;62.53;;
13999;SDS011;7075;53.574;10.054;2022-11-15T02:56:54;68.13;;;63.58;;
13999;SDS011;7075;53.574;10.054;2022-11-15T02:59:29;66.43;;;61.95;;
13999;SDS011;7075;53.574;10.054;2022-11-15T03:05:15;69.60;;;65.07;;
13999;SDS011;7075;53.574;10.054;2022-11-15T03:08:05;67.28;;;62.90;;
13999;SDS011;7075;53.574;10.054;2022-11-15T03:18:43;65.32;;;60.92;;
13999;SDS011;7075;53.574;10.054;2022-11-15T03:21:14;66.05;;;61.78;;
13999;SDS011;7075;53.574;10.054;2022-11-15T03:23:44;61.33;;;57.30;;
13999;SDS011;7075;53.574;10.054;2022-11-15T03:26:11;63.90;;;59.80;;
13999;SDS011;7075;53.574;10.054;2022-11-15T03:28:42;65.45;;;61.13;;
13999;SDS011;7075;53.574;10.054;2022-11-15T03:31:15;63.75;;;59.50;;
13999;SDS011;7075;53.574;10.054;2022-11-15T03:34:03;65.40;;;61.17;;
13999;SDS011;7075;53.574;10.054;2022-11-15T03:36:38;57.58;;;53.67;;
13999;SDS011;7075;53.574;10.054;2022-11-15T03:39:05;62.65;;;58.40;;
13999;SDS011;7075;53.574;10.054;2022-11-15T03:41:37;60.83;;;56.83;;
13999;SDS011;7075;53.574;10.054;2022-11-15T03:44:20;63.47;;;59.30;;
13999;SDS011;7075;53.574;10.054;2022-11-15T03:47:07;64.22;;;59.90;;
13999;SDS011;7075;53.574;10.054;2022-11-15T03:50:02;59.55;;;55.65;;
13999;SDS011;7075;53.574;10.054;2022-11-15T03:52:32;61.88;;;57.88;;
13999;SDS011;7075;53.574;10.054;2022-11-15T03:54:59;59.20;;;55.38;;
13999;SDS011;7075;53.574;10.054;2022-11-15T03:57:26;65.28;;;61.20;;
13999;SDS011;7075;53.574;10.054;2022-11-15T03:59:52;61.93;;;57.93;;
13999;SDS011;7075;53.574;10.054;2022-11-15T04:02:17;63.80;;;59.63;;
13999;SDS011;7075;53.574;10.054;2022-11-15T04:04:43;64.47;;;60.45;;
13999;SDS011;7075;53.574;10.054;2022-11-15T04:07:08;65.00;;;60.80;;
13999;SDS011;7075;53.574;10.054;2022-11-15T04:09:34;61.87;;;57.87;;
13999;SDS011;7075;53.574;10.054;2022-11-15T04:12:19;63.20;;;59.03;;
13999;SDS011;7075;53.574;10.054;2022-11-15T04:14:55;57.00;;;53.38;;
13999;SDS011;7075;53.574;10.054;2022-11-15T04:17:48;62.40;;;58.30;;
13999;SDS011;7075;53.574;10.054;2022-11-15T04:20:22;64.97;;;60.85;;
13999;SDS011;7075;53.574;10.054;2022-11-15T04:23:12;63.08;;;59.08;;
13999;SDS011;7075;53.574;10.054;2022-11-15T04:25:59;61.95;;;58.05;;
13999;SDS011;7075;53.574;10.054;2022-11-15T04:28:45;56.72;;;53.15;;
13999;SDS011;7075;53.574;10.054;2022-11-15T04:31:30;62.53;;;58.78;;
13999;SDS011;7075;53.574;10.054;2022-11-15T04:33:58;61.80;;;57.90;;
13999;SDS011;7075;53.574;10.054;2022-11-15T04:36:40;64.15;;;60.25;;
13999;SDS011;7075;53.574;10.054;2022-11-15T04:39:24;56.85;;;53.40;;
13999;SDS011;7075;53.574;10.054;2022-11-15T04:41:49;64.10;;;60.10;;
13999;SDS011;7075;53.574;10.054;2022-11-15T04:44:15;59.67;;;55.93;;
13999;SDS011;7075;53.574;10.054;2022-11-15T04:46:41;60.80;;;56.80;;
13999;SDS011;7075;53.574;10.054;2022-11-15T04:49:06;63.73;;;59.80;;
13999;SDS011;7075;53.574;10.054;2022-11-15T04:51:32;56.50;;;52.85;;
13999;SDS011;7075;53.574;10.054;2022-11-15T04:53:57;57.40;;;53.90;;
13999;SDS011;7075;53.574;10.054;2022-11-15T04:56:23;57.13;;;53.60;;
13999;SDS011;7075;53.574;10.054;2022-11-15T04:58:48;57.30;;;53.83;;
13999;SDS011;7075;53.574;10.054;2022-11-15T05:01:14;58.28;;;54.67;;
13999;SDS011;7075;53.574;10.054;2022-11-15T05:03:41;58.33;;;54.63;;
13999;SDS011;7075;53.574;10.054;2022-11-15T05:06:35;61.05;;;57.33;;
13999;SDS011;7075;53.574;10.054;2022-11-15T05:09:04;62.72;;;58.90;;
13999;SDS011;7075;53.574;10.054;2022-11-15T05:11:33;57.25;;;53.83;;
13999;SDS011;7075;53.574;10.054;2022-11-15T05:13:58;57.05;;;53.53;;
13999;SDS011;7075;53.574;10.054;2022-11-15T05:16:24;54.03;;;50.67;;
13999;SDS011;7075;53.574;10.054;2022-11-15T05:18:50;59.27;;;55.43;;
13999;SDS011;7075;53.574;10.054;2022-11-15T05:21:19;53.50;;;50.10;;
13999;SDS011;7075;53.574;10.054;2022-11-15T05:23:45;60.42;;;56.67;;
13999;SDS011;7075;53.574;10.054;2022-11-15T05:26:11;58.87;;;55.23;;
13999;SDS011;7075;53.574;10.054;2022-11-15T05:28:37;57.60;;;54.00;;
13999;SDS011;7075;53.574;10.054;2022-11-15T05:31:04;59.65;;;55.75;;
13999;SDS011;7075;53.574;10.054;2022-11-15T05:33:31;57.05;;;53.53;;
13999;SDS011;7075;53.574;10.054;2022-11-15T05:36:00;58.30;;;54.60;;
13999;SDS011;7075;53.574;10.054;2022-11-15T05:38:48;57.50;;;53.90;;
13999;SDS011;7075;53.574;10.054;2022-11-15T05:41:15;56.85;;;53.28;;
13999;SDS011;7075;53.574;10.054;2022-11-15T05:43:44;55.80;;;52.30;;
13999;SDS011;7075;53.574;10.054;2022-11-15T05:46:10;60.53;;;56.92;;
13999;SDS011;7075;53.574;10.054;2022-11-15T05:48:35;64.50;;;60.50;;
13999;SDS011;7075;53.574;10.054;2022-11-15T05:51:11;64.43;;;60.72;;
13999;SDS011;7075;53.574;10.054;2022-11-15T05:53:38;62.23;;;58.43;;
13999;SDS011;7075;53.574;10.054;2022-11-15T05:56:04;62.90;;;59.13;;
13999;SDS011;7075;53.574;10.054;2022-11-15T05:58:32;65.63;;;61.72;;
13999;SDS011;7075;53.574;10.054;2022-11-15T06:00:58;60.30;;;56.60;;
13999;SDS011;7075;53.574;10.054;2022-11-15T06:03:24;61.33;;;57.58;;
13999;SDS011;7075;53.574;10.054;2022-11-15T06:05:50;71.43;;;67.30;;
13999;SDS011;7075;53.574;10.054;2022-11-15T06:08:15;64.57;;;60.77;;
13999;SDS011;7075;53.574;10.054;2022-11-15T06:10:41;62.20;;;58.50;;
13999;SDS011;7075;53.574;10.054;2022-11-15T06:13:06;63.38;;;59.50;;
13999;SDS011;7075;53.574;10.054;2022-11-15T06:15:32;66.53;;;62.42;;
13999;SDS011;7075;53.574;10.054;2022-11-15T06:17:59;63.20;;;59.40;;
13999;SDS011;7075;53.574;10.054;2022-11-15T06:20:25;62.55;;;58.75;;
13999;SDS011;7075;53.574;10.054;2022-11-15T06:22:58;64.00;;;60.15;;
13999;SDS011;7075;53.574;10.054;2022-11-15T06:25:25;58.97;;;55.35;;
13999;SDS011;7075;53.574;10.054;2022-11-15T06:27:52;61.63;;;57.80;;
13999;SDS011;7075;53.574;10.054;2022-11-15T06:30:19;61.25;;;57.63;;
13999;SDS011;7075;53.574;10.054;2022-11-15T06:32:48;61.25;;;57.55;;
13999;SDS011;7075;53.574;10.054;2022-11-15T06:35:13;61.78;;;58.05;;
13999;SDS011;7075;53.574;10.054;2022-11-15T06:37:39;60.63;;;56.93;;
13999;SDS011;7075;53.574;10.054;2022-11-15T06:40:06;60.40;;;56.72;;
13999;SDS011;7075;53.574;10.054;2022-11-15T06:42:33;64.53;;;60.72;;
13999;SDS011;7075;53.574;10.054;2022-11-15T06:44:59;62.33;;;58.72;;
13999;SDS011;7075;53.574;10.054;2022-11-15T06:47:24;66.77;;;62.77;;
13999;SDS011;7075;53.574;10.054;2022-11-15T06:49:50;63.70;;;60.00;;
13999;SDS011;7075;53.574;10.054;2022-11-15T06:52:16;64.50;;;60.72;;
13999;SDS011;7075;53.574;10.054;2022-11-15T06:54:43;58.13;;;54.65;;
13999;SDS011;7075;53.574;10.054;2022-11-15T06:57:09;64.60;;;60.67;;
13999;SDS011;7075;53.574;10.054;2022-11-15T06:59:35;66.13;;;62.03;;
13999;SDS011;7075;53.574;10.054;2022-11-15T07:02:01;62.40;;;58.70;;
13999;SDS011;7075;53.574;10.054;2022-11-15T07:04:26;68.30;;;64.30;;
13999;SDS011;7075;53.574;10.054;2022-11-15T07:06:52;64.75;;;60.95;;
13999;SDS011;7075;53.574;10.054;2022-11-15T07:09:17;65.97;;;61.87;;
13999;SDS011;7075;53.574;10.054;2022-11-15T07:11:43;66.60;;;62.50;;
13999;SDS011;7075;53.574;10.054;2022-11-15T07:14:08;66.33;;;62.20;;
13999;SDS011;7075;53.574;10.054;2022-11-15T07:16:34;67.63;;;63.83;;
13999;SDS011;7075;53.574;10.054;2022-11-15T07:19:08;65.15;;;61.30;;
13999;SDS011;7075;53.574;10.054;2022-11-15T07:21:33;69.90;;;65.73;;
13999;SDS011;7075;53.574;10.054;2022-11-15T07:23:59;66.77;;;62.83;;
13999;SDS011;7075;53.574;10.054;2022-11-15T07:26:24;65.60;;;61.70;;
13999;SDS011;7075;53.574;10.054;2022-11-15T07:28:50;67.80;;;63.90;;
13999;SDS011;7075;53.574;10.054;2022-11-15T07:31:15;72.72;;;68.53;;
13999;SDS011;7075;53.574;10.054;2022-11-15T07:33:41;67.83;;;63.93;;
13999;SDS011;7075;53.574;10.054;2022-11-15T07:36:06;70.43;;;66.30;;
13999;SDS011;7075;53.574;10.054;2022-11-15T07:38:35;70.68;;;66.53;;
13999;SDS011;7075;53.574;10.054;2022-11-15T07:41:04;70.20;;;66.05;;
13999;SDS011;7075;53.574;10.054;2022-11-15T07:43:30;68.88;;;64.78;;
13999;SDS011;7075;53.574;10.054;2022-11-15T07:45:58;71.32;;;67.05;;
13999;SDS011;7075;53.574;10.054;2022-11-15T07:48:28;72.90;;;68.35;;
13999;SDS011;7075;53.574;10.054;2022-11-15T07:50:54;65.38;;;61.15;;
13999;SDS011;7075;53.574;10.054;2022-11-15T07:53:23;66.88;;;62.85;;
13999;SDS011;7075;53.574;10.054;2022-11-15T07:55:48;66.63;;;62.47;;
13999;SDS011;7075;53.574;10.054;2022-11-15T07:58:14;75.90;;;71.20;;
13999;SDS011;7075;53.574;10.054;2022-11-15T08:00:39;71.10;;;66.80;;
13999;SDS011;7075;53.574;10.054;2022-11-15T08:03:06;63.33;;;59.50;;
13999;SDS011;7075;53.574;10.054;2022-11-15T08:05:36;63.05;;;59.25;;
13999;SDS011;7075;53.574;10.054;2022-11-15T08:08:04;59.60;;;56.00;;
13999;SDS011;7075;53.574;10.054;2022-11-15T08:10:31;67.80;;;63.73;;
13999;SDS011;7075;53.574;10.054;2022-11-15T08:12:57;58.67;;;55.17;;
13999;SDS011;7075;53.574;10.054;2022-11-15T08:15:27;64.20;;;60.00;;
13999;SDS011;7075;53.574;10.054;2022-11-15T08:17:58;68.82;;;64.72;;
13999;SDS011;7075;53.574;10.054;2022-11-15T08:20:25;64.28;;;60.47;;
13999;SDS011;7075;53.574;10.054;2022-11-15T08:22:53;64.05;;;60.35;;
13999;SDS011;7075;53.574;10.054;2022-11-15T08:25:19;65.57;;;61.83;;
13999;SDS011;7075;53.574;10.054;2022-11-15T08:27:44;70.93;;;66.63;;
13999;SDS011;7075;53.574;10.054;2022-11-15T08:30:10;64.90;;;60.93;;
13999;SDS011;7075;53.574;10.054;2022-11-15T08:32:36;67.60;;;63.65;;
13999;SDS011;7075;53.574;10.054;2022-11-15T08:35:02;64.70;;;60.80;;
13999;SDS011;7075;53.574;10.054;2022-11-15T08:37:28;65.93;;;62.03;;
13999;SDS011;7075;53.574;10.054;2022-11-15T08:39:53;66.90;;;63.10;;
13999;SDS011;7075;53.574;10.054;2022-11-15T08:42:19;63.93;;;60.03;;
13999;SDS011;7075;53.574;10.054;2022-11-15T08:44:47;69.37;;;65.33;;
13999;SDS011;7075;53.574;10.054;2022-11-15T08:47:13;65.07;;;61.28;;
13999;SDS011;7075;53.574;10.054;2022-11-15T08:49:38;68.85;;;64.85;;
13999;SDS011;7075;53.574;10.054;2022-11-15T08:52:04;67.90;;;63.73;;
13999;SDS011;7075;53.574;10.054;2022-11-15T08:54:30;70.47;;;66.17;;
13999;SDS011;7075;53.574;10.054;2022-11-15T08:56:55;73.80;;;68.82;;
13999;SDS011;7075;53.574;10.054;2022-11-15T08:59:21;75.18;;;70.70;;
13999;SDS011;7075;53.574;10.054;2022-11-15T09:01:47;62.10;;;58.38;;
13999;SDS011;7075;53.574;10.054;2022-11-15T09:04:13;67.93;;;63.92;;
13999;SDS011;7075;53.574;10.054;2022-11-15T09:06:38;63.93;;;60.13;;
13999;SDS011;7075;53.574;10.054;2022-11-15T09:09:03;65.07;;;61.27;;
13999;SDS011;7075;53.574;10.054;2022-11-15T09:11:29;66.00;;;62.10;;
13999;SDS011;7075;53.574;10.054;2022-11-15T09:13:55;71.03;;;66.70;;
13999;SDS011;7075;53.574;10.054;2022-11-15T09:16:23;73.60;;;69.10;;
13999;SDS011;7075;53.574;10.054;2022-11-15T09:18:49;68.53;;;64.32;;
13999;SDS011;7075;53.574;10.054;2022-11-15T09:21:14;65.53;;;61.63;;
13999;SDS011;7075;53.574;10.054;2022-11-15T09:23:40;69.37;;;65.17;;
13999;SDS011;7075;53.574;10.054;2022-11-15T09:26:06;62.37;;;58.43;;
13999;SDS011;7075;53.574;10.054;2022-11-15T09:28:40;67.40;;;63.35;;
13999;SDS011;7075;53.574;10.054;2022-11-15T09:31:07;58.75;;;55.20;;
13999;SDS011;7075;53.574;10.054;2022-11-15T09:33:33;65.83;;;61.83;;
13999;SDS011;7075;53.574;10.054;2022-11-15T09:35:59;67.07;;;63.17;;
13999;SDS011;7075;53.574;10.054;2022-11-15T09:38:30;71.03;;;66.88;;
13999;SDS011;7075;53.574;10.054;2022-11-15T09:41:21;70.40;;;66.30;;
13999;SDS011;7075;53.574;10.054;2022-11-15T09:46:53;67.70;;;63.60;;
13999;SDS011;7075;53.574;10.054;2022-11-15T09:49:28;66.10;;;62.00;;
13999;SDS011;7075;53.574;10.054;2022-11-15T09:51:55;72.43;;;68.15;;
13999;SDS011;7075;53.574;10.054;2022-11-15T09:54:41;75.55;;;70.82;;
13999;SDS011;7075;53.574;10.054;2022-11-15T09:57:33;72.40;;;67.90;;
13999;SDS011;7075;53.574;10.054;2022-11-15T10:00:16;68.53;;;64.18;;
13999;SDS011;7075;53.574;10.054;2022-11-15T10:03:13;61.10;;;57.28;;
13999;SDS011;7075;53.574;10.054;2022-11-15T10:05:40;72.85;;;68.47;;
13999;SDS011;7075;53.574;10.054;2022-11-15T10:08:16;67.85;;;63.75;;
13999;SDS011;7075;53.574;10.054;2022-11-15T10:10:56;64.82;;;60.67;;
13999;SDS011;7075;53.574;10.054;2022-11-15T10:13:28;71.13;;;66.97;;
13999;SDS011;7075;53.574;10.054;2022-11-15T10:16:04;68.03;;;64.15;;
13999;SDS011;7075;53.574;10.054;2022-11-15T10:18:40;71.75;;;67.70;;
13999;SDS011;7075;53.574;10.054;2022-11-15T10:24:15;71.93;;;67.73;;
13999;SDS011;7075;53.574;10.054;2022-11-15T10:26:48;68.75;;;64.55;;
13999;SDS011;7075;53.574;10.054;2022-11-15T10:29:18;72.72;;;68.40;;
13999;SDS011;7075;53.574;10.054;2022-11-15T10:31:45;77.22;;;72.65;;
13999;SDS011;7075;53.574;10.054;2022-11-15T10:34:14;70.17;;;66.03;;
13999;SDS011;7075;53.574;10.054;2022-11-15T10:36:45;77.55;;;73.00;;
13999;SDS011;7075;53.574;10.054;2022-11-15T10:39:12;79.68;;;74.80;;
13999;SDS011;7075;53.574;10.054;2022-11-15T10:41:39;72.68;;;68.28;;
13999;SDS011;7075;53.574;10.054;2022-11-15T10:46:32;74.70;;;70.30;;
13999;SDS011;7075;53.574;10.054;2022-11-15T10:49:18;71.22;;;67.30;;
13999;SDS011;7075;53.574;10.054;2022-11-15T10:57:04;76.95;;;72.68;;
13999;SDS011;7075;53.574;10.054;2022-11-15T10:59:33;76.13;;;71.90;;
13999;SDS011;7075;53.574;10.054;2022-11-15T11:02:02;71.07;;;67.22;;
13999;SDS011;7075;53.574;10.054;2022-11-15T11:04:52;73.93;;;69.90;;
13999;SDS011;7075;53.574;10.054;2022-11-15T11:07:23;64.05;;;60.40;;
13999;SDS011;7075;53.574;10.054;2022-11-15T11:09:58;68.13;;;64.45;;
13999;SDS011;7075;53.574;10.054;2022-11-15T11:12:29;72.90;;;68.93;;
13999;SDS011;7075;53.574;10.054;2022-11-15T11:15:05;78.03;;;73.63;;
13999;SDS011;7075;53.574;10.054;2022-11-15T11:20:39;77.25;;;73.15;;
13999;SDS011;7075;53.574;10.054;2022-11-15T11:28:36;72.72;;;68.78;;
13999;SDS011;7075;53.574;10.054;2022-11-15T11:48:30;82.72;;;78.10;;
13999;SDS011;7075;53.574;10.054;2022-11-15T11:51:05;73.65;;;69.20;;
13999;SDS011;7075;53.574;10.054;2022-11-15T11:53:46;78.05;;;73.72;;
13999;SDS011;7075;53.574;10.054;2022-11-15T11:56:31;78.28;;;73.68;;
13999;SDS011;7075;53.574;10.054;2022-11-15T12:02:12;73.35;;;68.95;;
13999;SDS011;7075;53.574;10.054;2022-11-15T12:04:50;76.03;;;71.60;;
13999;SDS011;7075;53.574;10.054;2022-11-15T12:07:20;76.85;;;72.45;;
13999;SDS011;7075;53.574;10.054;2022-11-15T12:16:05;82.00;;;77.03;;
13999;SDS011;7075;53.574;10.054;2022-11-15T12:18:15;75.22;;;71.03;;
13999;SDS011;7075;53.574;10.054;2022-11-15T12:20:47;83.00;;;78.30;;
13999;SDS011;7075;53.574;10.054;2022-11-15T12:23:52;78.80;;;74.07;;
13999;SDS011;7075;53.574;10.054;2022-11-15T12:26:29;80.88;;;76.30;;
13999;SDS011;7075;53.574;10.054;2022-11-15T12:29:04;76.70;;;72.45;;
13999;SDS011;7075;53.574;10.054;2022-11-15T12:31:51;82.40;;;78.03;;
13999;SDS011;7075;53.574;10.054;2022-11-15T12:36:47;73.10;;;69.18;;
13999;SDS011;7075;53.574;10.054;2022-11-15T12:39:15;80.50;;;76.13;;
13999;SDS011;7075;53.574;10.054;2022-11-15T12:41:42;83.93;;;79.47;;
13999;SDS011;7075;53.574;10.054;2022-11-15T12:44:13;78.53;;;74.10;;
13999;SDS011;7075;53.574;10.054;2022-11-15T13:02:32;85.07;;;80.65;;
13999;SDS011;7075;53.574;10.054;2022-11-15T13:05:27;87.70;;;82.85;;
13999;SDS011;7075;53.574;10.054;2022-11-15T13:08:09;86.75;;;82.18;;
13999;SDS011;7075;53.574;10.054;2022-11-15T13:17:02;101.95;;;96.30;;
13999;SDS011;7075;53.574;10.054;2022-11-15T13:19:35;88.38;;;83.43;;
13999;SDS011;7075;53.574;10.054;2022-11-15T13:22:04;98.05;;;92.90;;
13999;SDS011;7075;53.574;10.054;2022-11-15T13:24:52;94.25;;;89.18;;
13999;SDS011;7075;53.574;10.054;2022-11-15T13:27:23;93.00;;;87.97;;
13999;SDS011;7075;53.574;10.054;2022-11-15T13:29:50;91.38;;;86.47;;
13999;SDS011;7075;53.574;10.054;2022-11-15T13:32:17;96.35;;;91.25;;
13999;SDS011;7075;53.574;10.054;2022-11-15T13:34:43;82.30;;;77.90;;
13999;SDS011;7075;53.574;10.054;2022-11-15T13:37:32;91.30;;;86.30;;
13999;SDS011;7075;53.574;10.054;2022-11-15T13:40:10;91.93;;;86.82;;
13999;SDS011;7075;53.574;10.054;2022-11-15T13:42:45;96.35;;;91.22;;
13999;SDS011;7075;53.574;10.054;2022-11-15T13:45:12;98.40;;;93.13;;
13999;SDS011;7075;53.574;10.054;2022-11-15T13:47:40;91.30;;;86.40;;
13999;SDS011;7075;53.574;10.054;2022-11-15T13:50:05;88.20;;;83.47;;
13999;SDS011;7075;53.574;10.054;2022-11-15T13:52:35;90.78;;;85.88;;
13999;SDS011;7075;53.574;10.054;2022-11-15T13:55:08;99.68;;;94.53;;
13999;SDS011;7075;53.574;10.054;2022-11-15T13:57:53;104.93;;;99.43;;
13999;SDS011;7075;53.574;10.054;2022-11-15T14:00:27;103.20;;;97.82;;
13999;SDS011;7075;53.574;10.054;2022-11-15T14:05:40;103.53;;;97.97;;
13999;SDS011;7075;53.574;10.054;2022-11-15T14:10:44;112.57;;;106.78;;
13999;SDS011;7075;53.574;10.054;2022-11-15T14:13:11;108.90;;;103.20;;
13999;SDS011;7075;53.574;10.054;2022-11-15T14:15:52;116.40;;;110.22;;
13999;SDS011;7075;53.574;10.054;2022-11-15T14:21:07;116.60;;;110.55;;
13999;SDS011;7075;53.574;10.054;2022-11-15T14:23:33;111.95;;;106.22;;
13999;SDS011;7075;53.574;10.054;2022-11-15T14:25:59;112.00;;;106.20;;
13999;SDS011;7075;53.574;10.054;2022-11-15T14:30:54;111.57;;;105.73;;
13999;SDS011;7075;53.574;10.054;2022-11-15T14:33:27;106.05;;;100.50;;
13999;SDS011;7075;53.574;10.054;2022-11-15T14:35:56;98.75;;;93.32;;
13999;SDS011;7075;53.574;10.054;2022-11-15T14:38:26;102.43;;;96.93;;
13999;SDS011;7075;53.574;10.054;2022-11-15T14:40:52;98.30;;;93.05;;
13999;SDS011;7075;53.574;10.054;2022-11-15T14:43:18;89.25;;;84.35;;
13999;SDS011;7075;53.574;10.054;2022-11-15T14:45:44;97.18;;;91.93;;
13999;SDS011;7075;53.574;10.054;2022-11-15T14:48:10;90.57;;;85.53;;
13999;SDS011;7075;53.574;10.054;2022-11-15T14:50:36;89.53;;;84.63;;
13999;SDS011;7075;53.574;10.054;2022-11-15T14:53:02;93.63;;;88.60;;
13999;SDS011;7075;53.574;10.054;2022-11-15T14:55:29;98.50;;;93.22;;
13999;SDS011;7075;53.574;10.054;2022-11-15T14:57:58;90.65;;;85.95;;
13999;SDS011;7075;53.574;10.054;2022-11-15T15:00:23;88.50;;;83.80;;
13999;SDS011;7075;53.574;10.054;2022-11-15T15:02:50;89.55;;;84.85;;
13999;SDS011;7075;53.574;10.054;2022-11-15T15:05:22;83.38;;;79.03;;
13999;SDS011;7075;53.574;10.054;2022-11-15T15:07:56;81.07;;;76.78;;
13999;SDS011;7075;53.574;10.054;2022-11-15T15:10:22;90.43;;;85.68;;
13999;SDS011;7075;53.574;10.054;2022-11-15T15:12:48;85.10;;;80.57;;
13999;SDS011;7075;53.574;10.054;2022-11-15T15:15:16;94.00;;;89.00;;
13999;SDS011;7075;53.574;10.054;2022-11-15T15:17:46;88.25;;;83.50;;
13999;SDS011;7075;53.574;10.054;2022-11-15T15:20:12;91.20;;;86.40;;
13999;SDS011;7075;53.574;10.054;2022-11-15T15:22:38;88.90;;;84.13;;
13999;SDS011;7075;53.574;10.054;2022-11-15T15:25:13;87.97;;;83.38;;
13999;SDS011;7075;53.574;10.054;2022-11-15T15:27:55;81.22;;;76.93;;
13999;SDS011;7075;53.574;10.054;2022-11-15T15:30:21;92.47;;;87.57;;
13999;SDS011;7075;53.574;10.054;2022-11-15T15:32:47;86.93;;;82.33;;
13999;SDS011;7075;53.574;10.054;2022-11-15T15:35:14;89.95;;;85.22;;
13999;SDS011;7075;53.574;10.054;2022-11-15T15:37:40;86.80;;;82.15;;
13999;SDS011;7075;53.574;10.054;2022-11-15T15:40:10;90.40;;;85.43;;
13999;SDS011;7075;53.574;10.054;2022-11-15T15:42:47;93.13;;;87.82;;
13999;SDS011;7075;53.574;10.054;2022-11-15T15:45:13;102.45;;;96.65;;
13999;SDS011;7075;53.574;10.054;2022-11-15T15:47:40;87.20;;;81.97;;
13999;SDS011;7075;53.574;10.054;2022-11-15T15:52:41;83.68;;;79.00;;
13999;SDS011;7075;53.574;10.054;2022-11-15T15:55:07;92.13;;;87.20;;
13999;SDS011;7075;53.574;10.054;2022-11-15T15:57:35;89.05;;;84.22;;
13999;SDS011;7075;53.574;10.054;2022-11-15T16:00:01;83.10;;;78.55;;
13999;SDS011;7075;53.574;10.054;2022-11-15T16:02:28;88.53;;;83.77;;
13999;SDS011;7075;53.574;10.054;2022-11-15T16:04:57;83.47;;;78.97;;
13999;SDS011;7075;53.574;10.054;2022-11-15T16:07:22;82.78;;;78.38;;
13999;SDS011;7075;53.574;10.054;2022-11-15T16:09:53;81.00;;;76.63;;
13999;SDS011;7075;53.574;10.054;2022-11-15T16:14:58;84.43;;;79.88;;
13999;SDS011;7075;53.574;10.054;2022-11-15T16:17:25;75.60;;;71.60;;
13999;SDS011;7075;53.574;10.054;2022-11-15T16:19:56;83.18;;;78.43;;
13999;SDS011;7075;53.574;10.054;2022-11-15T16:22:22;80.80;;;76.22;;
13999;SDS011;7075;53.574;10.054;2022-11-15T16:24:47;82.17;;;77.77;;
13999;SDS011;7075;53.574;10.054;2022-11-15T16:27:17;85.10;;;80.60;;
13999;SDS011;7075;53.574;10.054;2022-11-15T16:29:44;81.47;;;77.17;;